createdAt,value
2022-09-09T00:00:04.336Z,1001.8
2022-09-09T00:01:04.332Z,1001.8
2022-09-09T00:02:04.397Z,1001.8
2022-09-09T00:03:04.507Z,1001.8
2022-09-09T00:04:04.336Z,1001.8
2022-09-09T00:05:11.041Z,1001.8
2022-09-09T00:06:03.753Z,1001.7
2022-09-09T00:07:03.743Z,1001.7
2022-09-09T00:08:03.746Z,1001.8
2022-09-09T00:09:03.956Z,1001.7
2022-09-09T00:10:03.871Z,1001.7
2022-09-09T00:11:03.761Z,1001.7
2022-09-09T00:12:03.760Z,1001.7
2022-09-09T00:13:03.753Z,1001.7
2022-09-09T00:14:03.757Z,1001.7
2022-09-09T00:15:03.793Z,1001.7
2022-09-09T00:16:03.767Z,1001.7
2022-09-09T00:17:03.744Z,1001.7
2022-09-09T00:18:03.769Z,1001.7
2022-09-09T00:19:03.781Z,1001.7
2022-09-09T00:20:03.756Z,1001.7
2022-09-09T00:21:03.794Z,1001.6
2022-09-09T00:22:03.750Z,1001.6
2022-09-09T00:23:03.814Z,1001.6
2022-09-09T00:24:03.764Z,1001.6
2022-09-09T00:25:03.754Z,1001.6
2022-09-09T00:26:03.756Z,1001.6
2022-09-09T00:27:03.840Z,1001.6
2022-09-09T00:28:03.748Z,1001.6
2022-09-09T00:29:03.754Z,1001.6
2022-09-09T00:30:03.756Z,1001.7
2022-09-09T00:31:03.862Z,1001.6
2022-09-09T00:32:03.742Z,1001.6
2022-09-09T00:33:03.785Z,1001.6
2022-09-09T00:34:03.747Z,1001.6
2022-09-09T00:35:03.751Z,1001.6
2022-09-09T00:36:03.761Z,1001.5
2022-09-09T00:37:03.771Z,1001.6
2022-09-09T00:38:03.776Z,1001.6
2022-09-09T00:39:03.796Z,1001.5
2022-09-09T00:40:03.891Z,1001.6
2022-09-09T00:41:03.769Z,1001.6
2022-09-09T00:42:03.749Z,1001.5
2022-09-09T00:43:03.761Z,1001.6
2022-09-09T00:44:03.764Z,1001.6
2022-09-09T00:45:03.774Z,1001.6
2022-09-09T00:46:03.903Z,1001.6
2022-09-09T00:47:03.767Z,1001.7
2022-09-09T00:48:03.750Z,1001.6
2022-09-09T00:49:03.755Z,1001.6
2022-09-09T00:50:03.750Z,1001.6
2022-09-09T00:51:03.758Z,1001.7
2022-09-09T00:52:03.946Z,1001.7
2022-09-09T00:53:03.762Z,1001.6
2022-09-09T00:54:03.755Z,1001.6
2022-09-09T00:56:36.302Z,1001.7
2022-09-09T00:57:06.130Z,1001.7
2022-09-09T00:58:04.393Z,1001.7
2022-09-09T00:59:04.408Z,1001.7
2022-09-09T01:00:04.381Z,1001.7
2022-09-09T01:01:04.431Z,1001.7
2022-09-09T01:02:04.439Z,1001.7
2022-09-09T01:03:04.428Z,1001.7
2022-09-09T01:04:04.429Z,1001.7
2022-09-09T01:05:04.391Z,1001.6
2022-09-09T01:06:04.401Z,1001.7
2022-09-09T01:07:04.392Z,1001.6
2022-09-09T01:08:04.384Z,1001.6
2022-09-09T01:09:04.419Z,1001.7
2022-09-09T01:10:04.378Z,1001.6
2022-09-09T01:11:04.393Z,1001.6
2022-09-09T01:12:04.395Z,1001.6
2022-09-09T01:13:04.405Z,1001.6
2022-09-09T01:14:04.405Z,1001.6
2022-09-09T01:15:04.439Z,1001.6
2022-09-09T01:16:04.383Z,1001.6
2022-09-09T01:17:04.571Z,1001.6
2022-09-09T01:18:04.405Z,1001.6
2022-09-09T01:19:04.401Z,1001.6
2022-09-09T01:20:04.403Z,1001.6
2022-09-09T01:21:04.425Z,1001.6
2022-09-09T01:22:04.390Z,1001.6
2022-09-09T01:23:04.399Z,1001.6
2022-09-09T01:24:04.395Z,1001.5
2022-09-09T01:25:04.431Z,1001.5
2022-09-09T01:26:04.383Z,1001.5
2022-09-09T01:27:04.423Z,1001.5
2022-09-09T01:28:04.392Z,1001.6
2022-09-09T01:29:04.419Z,1001.6
2022-09-09T01:30:04.396Z,1001.6
2022-09-09T01:31:04.452Z,1001.6
2022-09-09T01:32:04.387Z,1001.6
2022-09-09T01:33:04.450Z,1001.6
2022-09-09T01:34:04.400Z,1001.7
2022-09-09T01:35:04.398Z,1001.7
2022-09-09T01:36:04.399Z,1001.7
2022-09-09T01:37:04.411Z,1001.7
2022-09-09T01:38:04.398Z,1001.7
2022-09-09T01:39:04.436Z,1001.8
2022-09-09T01:40:04.471Z,1001.7
2022-09-09T01:41:04.395Z,1001.7
2022-09-09T01:42:04.392Z,1001.7
2022-09-09T01:43:04.408Z,1001.7
2022-09-09T01:44:04.406Z,1001.7
2022-09-09T01:45:04.423Z,1001.7
2022-09-09T01:46:04.465Z,1001.7
2022-09-09T01:47:04.394Z,1001.7
2022-09-09T01:48:04.399Z,1001.7
2022-09-09T01:49:04.401Z,1001.7
2022-09-09T01:50:04.440Z,1001.7
2022-09-09T01:51:04.417Z,1001.7
2022-09-09T01:52:04.391Z,1001.7
2022-09-09T01:53:04.396Z,1001.7
2022-09-09T01:54:04.400Z,1001.7
2022-09-09T01:55:04.411Z,1001.7
2022-09-09T01:56:04.418Z,1001.7
2022-09-09T01:57:04.410Z,1001.7
2022-09-09T01:58:04.404Z,1001.7
2022-09-09T01:59:04.407Z,1001.7
2022-09-09T02:00:04.410Z,1001.7
2022-09-09T02:01:04.755Z,1001.7
2022-09-09T02:02:04.814Z,1001.6
2022-09-09T02:03:30.945Z,1001.6
2022-09-09T02:04:03.623Z,1001.6
2022-09-09T02:05:03.630Z,1001.6
2022-09-09T02:06:03.650Z,1001.6
2022-09-09T02:07:04.482Z,1001.7
2022-09-09T02:08:03.655Z,1001.6
2022-09-09T02:09:03.627Z,1001.7
2022-09-09T02:10:03.637Z,1001.7
2022-09-09T02:11:03.632Z,1001.7
2022-09-09T02:12:03.637Z,1001.7
2022-09-09T02:13:03.644Z,1001.7
2022-09-09T02:14:03.672Z,1001.7
2022-09-09T02:15:03.631Z,1001.7
2022-09-09T02:16:03.634Z,1001.7
2022-09-09T02:17:03.755Z,1001.7
2022-09-09T02:18:03.645Z,1001.7
2022-09-09T02:19:03.629Z,1001.7
2022-09-09T02:20:04.449Z,1001.7
2022-09-09T02:21:03.636Z,1001.7
2022-09-09T02:22:03.641Z,1001.7
2022-09-09T02:23:03.693Z,1001.7
2022-09-09T02:24:03.655Z,1001.7
2022-09-09T02:25:03.627Z,1001.7
2022-09-09T02:26:10.354Z,1001.7
2022-09-09T02:27:04.085Z,1001.7
2022-09-09T02:28:04.090Z,1001.7
2022-09-09T02:29:04.064Z,1001.7
2022-09-09T02:30:04.067Z,1001.7
2022-09-09T02:31:04.162Z,1001.7
2022-09-09T02:32:04.218Z,1001.7
2022-09-09T02:33:04.093Z,1001.7
2022-09-09T02:34:04.067Z,1001.7
2022-09-09T02:35:04.073Z,1001.6
2022-09-09T02:36:04.079Z,1001.6
2022-09-09T02:37:04.083Z,1001.7
2022-09-09T02:38:04.094Z,1001.7
2022-09-09T02:39:04.065Z,1001.7
2022-09-09T02:40:04.141Z,1001.7
2022-09-09T02:41:04.142Z,1001.7
2022-09-09T02:42:04.085Z,1001.7
2022-09-09T02:43:04.097Z,1001.7
2022-09-09T02:44:04.096Z,1001.7
2022-09-09T02:45:04.074Z,1001.7
2022-09-09T02:46:04.242Z,1001.7
2022-09-09T02:47:04.131Z,1001.7
2022-09-09T02:48:04.090Z,1001.7
2022-09-09T02:49:04.156Z,1001.7
2022-09-09T02:50:04.111Z,1001.6
2022-09-09T02:51:04.078Z,1001.7
2022-09-09T02:52:04.115Z,1001.7
2022-09-09T02:53:04.109Z,1001.7
2022-09-09T02:54:04.081Z,1001.6
2022-09-09T02:55:04.071Z,1001.6
2022-09-09T02:56:04.347Z,1001.6
2022-09-09T02:57:04.089Z,1001.6
2022-09-09T02:58:04.157Z,1001.6
2022-09-09T02:59:04.119Z,1001.6
2022-09-09T03:00:04.171Z,1001.5
2022-09-09T03:01:04.146Z,1001.5
2022-09-09T03:02:04.225Z,1001.5
2022-09-09T03:03:04.087Z,1001.5
2022-09-09T03:04:04.394Z,1001.5
2022-09-09T03:05:04.498Z,1001.5
2022-09-09T03:06:04.098Z,1001.5
2022-09-09T03:07:04.150Z,1001.5
2022-09-09T03:08:04.112Z,1001.5
2022-09-09T03:09:04.090Z,1001.5
2022-09-09T03:10:04.108Z,1001.6
2022-09-09T03:11:04.081Z,1001.6
2022-09-09T03:12:04.082Z,1001.6
2022-09-09T03:13:04.084Z,1001.6
2022-09-09T03:14:04.090Z,1001.6
2022-09-09T03:15:04.084Z,1001.6
2022-09-09T03:16:04.119Z,1001.6
2022-09-09T03:17:04.120Z,1001.6
2022-09-09T03:18:04.080Z,1001.5
2022-09-09T03:19:04.113Z,1001.5
2022-09-09T03:20:04.086Z,1001.6
2022-09-09T03:21:04.090Z,1001.6
2022-09-09T03:22:04.115Z,1001.6
2022-09-09T03:23:04.091Z,1001.6
2022-09-09T03:24:04.078Z,1001.7
2022-09-09T03:26:13.348Z,1001.7
2022-09-09T03:26:17.291Z,1001.6
2022-09-09T03:27:04.088Z,1001.6
2022-09-09T03:28:04.122Z,1001.7
2022-09-09T03:29:04.086Z,1001.7
2022-09-09T03:30:04.092Z,1001.7
2022-09-09T03:31:04.086Z,1001.7
2022-09-09T03:32:04.168Z,1001.7
2022-09-09T03:33:04.135Z,1001.7
2022-09-09T03:34:04.120Z,1001.7
2022-09-09T03:35:04.096Z,1001.7
2022-09-09T03:36:04.078Z,1001.7
2022-09-09T03:37:04.087Z,1001.6
2022-09-09T03:38:04.091Z,1001.7
2022-09-09T03:39:04.096Z,1001.6
2022-09-09T03:40:04.206Z,1001.6
2022-09-09T03:41:04.098Z,1001.6
2022-09-09T03:42:04.096Z,1001.6
2022-09-09T03:43:04.112Z,1001.7
2022-09-09T03:44:04.097Z,1001.6
2022-09-09T03:45:04.095Z,1001.7
2022-09-09T03:46:04.148Z,1001.7
2022-09-09T03:47:04.108Z,1001.7
2022-09-09T03:48:04.088Z,1001.6
2022-09-09T03:49:04.093Z,1001.6
2022-09-09T03:50:04.100Z,1001.6
2022-09-09T03:51:04.105Z,1001.6
2022-09-09T03:52:04.247Z,1001.7
2022-09-09T03:53:05.326Z,1001.6
2022-09-09T03:54:04.202Z,1001.6
2022-09-09T03:55:04.208Z,1001.7
2022-09-09T03:56:04.202Z,1001.6
2022-09-09T03:57:04.164Z,1001.6
2022-09-09T03:58:04.243Z,1001.6
2022-09-09T03:59:04.209Z,1001.6
2022-09-09T04:00:04.207Z,1001.6
2022-09-09T04:01:04.141Z,1001.6
2022-09-09T04:02:04.139Z,1001.6
2022-09-09T04:03:04.090Z,1001.6
2022-09-09T04:04:04.127Z,1001.6
2022-09-09T04:05:05.139Z,1001.6
2022-09-09T04:06:04.127Z,1001.6
2022-09-09T04:07:04.105Z,1001.6
2022-09-09T04:08:04.089Z,1001.6
2022-09-09T04:09:04.111Z,1001.6
2022-09-09T04:10:04.130Z,1001.6
2022-09-09T04:11:04.122Z,1001.6
2022-09-09T04:12:04.115Z,1001.6
2022-09-09T04:13:04.100Z,1001.6
2022-09-09T04:14:04.126Z,1001.6
2022-09-09T04:15:04.104Z,1001.6
2022-09-09T04:16:04.156Z,1001.6
2022-09-09T04:17:04.114Z,1001.6
2022-09-09T04:18:04.124Z,1001.6
2022-09-09T04:19:04.338Z,1001.6
2022-09-09T04:20:04.100Z,1001.6
2022-09-09T04:21:04.107Z,1001.6
2022-09-09T04:22:04.130Z,1001.6
2022-09-09T04:23:04.110Z,1001.6
2022-09-09T04:24:04.101Z,1001.6
2022-09-09T04:25:04.108Z,1001.6
2022-09-09T04:26:04.111Z,1001.6
2022-09-09T04:27:04.117Z,1001.7
2022-09-09T04:28:04.304Z,1001.7
2022-09-09T04:29:04.095Z,1001.7
2022-09-09T04:31:36.071Z,1001.7
2022-09-09T04:32:03.835Z,1001.6
2022-09-09T04:33:03.746Z,1001.7
2022-09-09T04:34:03.728Z,1001.7
2022-09-09T04:35:03.730Z,1001.7
2022-09-09T04:36:03.783Z,1001.7
2022-09-09T04:37:03.738Z,1001.7
2022-09-09T04:38:03.885Z,1001.7
2022-09-09T04:39:03.754Z,1001.7
2022-09-09T04:40:03.825Z,1001.7
2022-09-09T04:41:03.736Z,1001.7
2022-09-09T04:42:10.485Z,1001.8
2022-09-09T04:43:10.445Z,1001.7
2022-09-09T04:44:04.467Z,1001.8
2022-09-09T04:45:04.204Z,1001.9
2022-09-09T04:46:04.256Z,1001.9
2022-09-09T04:47:04.212Z,1001.9
2022-09-09T04:48:04.340Z,1001.9
2022-09-09T04:49:04.212Z,1001.9
2022-09-09T04:50:04.218Z,1001.9
2022-09-09T04:51:04.210Z,1001.9
2022-09-09T04:52:05.190Z,1001.9
2022-09-09T04:53:04.223Z,1001.9
2022-09-09T04:54:04.237Z,1002.0
2022-09-09T04:55:04.218Z,1001.9
2022-09-09T04:56:04.207Z,1002.0
2022-09-09T04:57:04.216Z,1002.0
2022-09-09T04:58:04.214Z,1002.0
2022-09-09T04:59:04.225Z,1002.0
2022-09-09T05:00:04.237Z,1001.9
2022-09-09T05:01:04.247Z,1001.9
2022-09-09T05:02:04.308Z,1001.9
2022-09-09T05:03:04.224Z,1001.9
2022-09-09T05:04:04.208Z,1002.0
2022-09-09T05:05:04.218Z,1001.9
2022-09-09T05:06:04.237Z,1001.9
2022-09-09T05:07:04.222Z,1001.9
2022-09-09T05:08:04.224Z,1001.9
2022-09-09T05:09:04.231Z,1002.0
2022-09-09T05:10:04.238Z,1002.0
2022-09-09T05:11:04.216Z,1002.0
2022-09-09T05:12:04.363Z,1002.0
2022-09-09T05:13:04.247Z,1002.0
2022-09-09T05:14:04.212Z,1002.0
2022-09-09T05:15:04.216Z,1002.0
2022-09-09T05:16:04.237Z,1002.0
2022-09-09T05:17:04.223Z,1002.0
2022-09-09T05:18:04.258Z,1002.0
2022-09-09T05:19:04.314Z,1002.0
2022-09-09T05:20:09.066Z,1002.0
2022-09-09T05:21:04.222Z,1002.0
2022-09-09T05:22:04.342Z,1002.0
2022-09-09T05:23:04.245Z,1002.1
2022-09-09T05:24:04.261Z,1002.1
2022-09-09T05:25:04.225Z,1002.1
2022-09-09T05:26:04.213Z,1002.1
2022-09-09T05:27:04.232Z,1002.1
2022-09-09T05:28:04.239Z,1002.1
2022-09-09T05:29:04.233Z,1002.1
2022-09-09T05:30:04.241Z,1002.1
2022-09-09T05:31:04.244Z,1002.1
2022-09-09T05:32:04.220Z,1002.1
2022-09-09T05:33:04.228Z,1002.1
2022-09-09T05:34:04.321Z,1002.1
2022-09-09T05:35:04.238Z,1002.2
2022-09-09T05:36:04.311Z,1002.2
2022-09-09T05:37:04.228Z,1002.2
2022-09-09T05:39:54.489Z,1002.2
2022-09-09T05:40:05.065Z,1002.2
2022-09-09T05:41:04.159Z,1002.2
2022-09-09T05:42:04.159Z,1002.3
2022-09-09T05:43:04.132Z,1002.3
2022-09-09T05:44:04.130Z,1002.3
2022-09-09T05:45:04.136Z,1002.3
2022-09-09T05:46:04.157Z,1002.3
2022-09-09T05:47:04.199Z,1002.3
2022-09-09T05:48:04.305Z,1002.3
2022-09-09T05:49:04.153Z,1002.3
2022-09-09T05:50:04.136Z,1002.3
2022-09-09T05:51:04.142Z,1002.3
2022-09-09T05:52:04.148Z,1002.3
2022-09-09T05:53:04.156Z,1002.3
2022-09-09T05:54:04.166Z,1002.3
2022-09-09T05:55:04.138Z,1002.3
2022-09-09T05:56:04.144Z,1002.3
2022-09-09T05:57:04.140Z,1002.3
2022-09-09T05:58:04.137Z,1002.3
2022-09-09T05:59:04.141Z,1002.3
2022-09-09T06:00:04.175Z,1002.3
2022-09-09T06:01:04.173Z,1002.3
2022-09-09T06:02:04.236Z,1002.4
2022-09-09T06:03:04.214Z,1002.3
2022-09-09T06:04:04.337Z,1002.3
2022-09-09T06:05:04.136Z,1002.3
2022-09-09T06:06:04.209Z,1002.3
2022-09-09T06:07:04.147Z,1002.3
2022-09-09T06:08:04.158Z,1002.3
2022-09-09T06:09:04.128Z,1002.4
2022-09-09T06:10:04.137Z,1002.3
2022-09-09T06:11:04.145Z,1002.3
2022-09-09T06:12:04.253Z,1002.4
2022-09-09T06:13:04.136Z,1002.4
2022-09-09T06:14:04.150Z,1002.3
2022-09-09T06:15:04.145Z,1002.3
2022-09-09T06:16:04.200Z,1002.3
2022-09-09T06:17:04.146Z,1002.3
2022-09-09T06:18:04.187Z,1002.3
2022-09-09T06:19:04.138Z,1002.3
2022-09-09T06:20:04.157Z,1002.3
2022-09-09T06:21:04.158Z,1002.3
2022-09-09T06:22:04.149Z,1002.3
2022-09-09T06:23:04.143Z,1002.3
2022-09-09T06:24:04.168Z,1002.3
2022-09-09T06:25:04.139Z,1002.3
2022-09-09T06:26:04.138Z,1002.3
2022-09-09T06:27:04.155Z,1002.3
2022-09-09T06:28:04.160Z,1002.3
2022-09-09T06:29:04.146Z,1002.3
2022-09-09T06:30:04.175Z,1002.3
2022-09-09T06:31:04.200Z,1002.4
2022-09-09T06:32:04.222Z,1002.3
2022-09-09T06:33:04.149Z,1002.3
2022-09-09T06:35:23.559Z,1002.4
2022-09-09T06:35:27.529Z,1002.4
2022-09-09T06:36:04.143Z,1002.4
2022-09-09T06:37:04.150Z,1002.4
2022-09-09T06:38:04.155Z,1002.4
2022-09-09T06:39:04.155Z,1002.4
2022-09-09T06:40:04.230Z,1002.5
2022-09-09T06:41:04.175Z,1002.4
2022-09-09T06:42:04.153Z,1002.5
2022-09-09T06:43:04.172Z,1002.5
2022-09-09T06:44:04.164Z,1002.4
2022-09-09T06:45:04.162Z,1002.4
2022-09-09T06:46:04.156Z,1002.4
2022-09-09T06:47:04.299Z,1002.4
2022-09-09T06:48:04.159Z,1002.4
2022-09-09T06:49:04.184Z,1002.4
2022-09-09T06:50:04.187Z,1002.4
2022-09-09T06:51:04.148Z,1002.4
2022-09-09T06:52:04.153Z,1002.4
2022-09-09T06:53:04.173Z,1002.3
2022-09-09T06:54:04.156Z,1002.3
2022-09-09T06:55:04.165Z,1002.3
2022-09-09T06:56:04.155Z,1002.3
2022-09-09T06:57:20.793Z,1002.3
2022-09-09T06:58:04.155Z,1002.3
2022-09-09T06:59:04.189Z,1002.3
2022-09-09T07:00:04.191Z,1002.3
2022-09-09T07:01:04.224Z,1002.3
2022-09-09T07:02:04.185Z,1002.3
2022-09-09T07:03:04.151Z,1002.3
2022-09-09T07:04:04.176Z,1002.3
2022-09-09T07:05:04.298Z,1002.3
2022-09-09T07:06:04.154Z,1002.3
2022-09-09T07:07:04.149Z,1002.3
2022-09-09T07:08:04.162Z,1002.3
2022-09-09T07:09:04.158Z,1002.3
2022-09-09T07:10:04.166Z,1002.3
2022-09-09T07:11:04.219Z,1002.3
2022-09-09T07:12:04.159Z,1002.3
2022-09-09T07:13:04.149Z,1002.3
2022-09-09T07:14:04.155Z,1002.3
2022-09-09T07:15:04.163Z,1002.3
2022-09-09T07:16:04.200Z,1002.3
2022-09-09T07:17:04.312Z,1002.4
2022-09-09T07:18:04.169Z,1002.5
2022-09-09T07:19:04.161Z,1002.5
2022-09-09T07:20:04.163Z,1002.5
2022-09-09T07:21:04.158Z,1002.4
2022-09-09T07:22:04.158Z,1002.4
2022-09-09T07:23:04.183Z,1002.4
2022-09-09T07:24:04.171Z,1002.4
2022-09-09T07:25:04.157Z,1002.4
2022-09-09T07:26:04.168Z,1002.4
2022-09-09T07:27:04.178Z,1002.4
2022-09-09T07:28:04.186Z,1002.4
2022-09-09T07:29:04.206Z,1002.4
2022-09-09T07:30:04.198Z,1002.3
2022-09-09T07:31:04.203Z,1002.4
2022-09-09T07:32:04.185Z,1002.4
2022-09-09T07:33:04.159Z,1002.4
2022-09-09T07:34:04.172Z,1002.4
2022-09-09T07:35:04.319Z,1002.4
2022-09-09T07:36:04.170Z,1002.4
2022-09-09T07:37:04.174Z,1002.4
2022-09-09T07:38:04.166Z,1002.4
2022-09-09T07:39:04.166Z,1002.5
2022-09-09T07:40:04.271Z,1002.5
2022-09-09T07:41:04.170Z,1002.5
2022-09-09T07:42:04.187Z,1002.5
2022-09-09T07:43:04.162Z,1002.5
2022-09-09T07:44:04.167Z,1002.6
2022-09-09T07:45:04.159Z,1002.6
2022-09-09T07:46:04.234Z,1002.6
2022-09-09T07:47:04.170Z,1002.5
2022-09-09T07:48:04.191Z,1002.6
2022-09-09T07:49:04.184Z,1002.5
2022-09-09T07:50:04.183Z,1002.5
2022-09-09T07:51:04.165Z,1002.5
2022-09-09T07:52:04.302Z,1002.5
2022-09-09T07:53:04.172Z,1002.5
2022-09-09T07:54:04.179Z,1002.5
2022-09-09T07:55:04.175Z,1002.5
2022-09-09T07:56:04.188Z,1002.6
2022-09-09T07:57:04.166Z,1002.6
2022-09-09T07:58:04.208Z,1002.6
2022-09-09T07:59:04.171Z,1002.5
2022-09-09T08:00:04.185Z,1002.6
2022-09-09T08:01:04.181Z,1002.6
2022-09-09T08:02:04.253Z,1002.6
2022-09-09T08:03:04.212Z,1002.6
2022-09-09T08:04:04.216Z,1002.5
2022-09-09T08:05:04.178Z,1002.6
2022-09-09T08:06:04.186Z,1002.5
2022-09-09T08:07:04.167Z,1002.6
2022-09-09T08:08:04.198Z,1002.6
2022-09-09T08:09:04.162Z,1002.6
2022-09-09T08:10:04.213Z,1002.7
2022-09-09T08:11:04.177Z,1002.7
2022-09-09T08:12:04.185Z,1002.7
2022-09-09T08:13:18.297Z,1002.7
2022-09-09T08:14:04.187Z,1002.7
2022-09-09T08:15:04.204Z,1002.6
2022-09-09T08:16:04.248Z,1002.7
2022-09-09T08:17:04.211Z,1002.7
2022-09-09T08:18:10.887Z,1002.7
2022-09-09T08:19:04.600Z,1002.7
2022-09-09T08:20:04.611Z,1002.7
2022-09-09T08:21:04.649Z,1002.7
2022-09-09T08:22:04.619Z,1002.7
2022-09-09T08:23:04.612Z,1002.7
2022-09-09T08:24:04.607Z,1002.7
2022-09-09T08:25:04.612Z,1002.7
2022-09-09T08:26:04.644Z,1002.7
2022-09-09T08:27:04.620Z,1002.7
2022-09-09T08:28:04.667Z,1002.6
2022-09-09T08:29:04.607Z,1002.6
2022-09-09T08:30:04.636Z,1002.6
2022-09-09T08:31:04.937Z,1002.6
2022-09-09T08:32:04.654Z,1002.7
2022-09-09T08:33:04.616Z,1002.7
2022-09-09T08:34:04.621Z,1002.8
2022-09-09T08:35:08.149Z,1002.8
2022-09-09T08:36:04.681Z,1002.8
2022-09-09T08:37:11.343Z,1002.8
2022-09-09T08:38:07.642Z,1002.8
2022-09-09T08:39:04.025Z,1002.8
2022-09-09T08:40:04.064Z,1002.8
2022-09-09T08:41:04.024Z,1002.8
2022-09-09T08:42:04.025Z,1002.8
2022-09-09T08:43:04.050Z,1002.8
2022-09-09T08:44:04.024Z,1002.8
2022-09-09T08:45:04.026Z,1002.8
2022-09-09T08:46:04.154Z,1002.8
2022-09-09T08:47:04.042Z,1002.8
2022-09-09T08:48:04.022Z,1002.8
2022-09-09T08:49:04.053Z,1002.8
2022-09-09T08:50:04.035Z,1002.8
2022-09-09T08:51:04.087Z,1003.0
2022-09-09T08:52:04.029Z,1003.0
2022-09-09T08:53:05.080Z,1002.9
2022-09-09T08:54:04.025Z,1002.9
2022-09-09T08:55:04.067Z,1002.8
2022-09-09T08:56:04.033Z,1002.9
2022-09-09T08:57:04.030Z,1002.9
2022-09-09T08:58:04.096Z,1002.8
2022-09-09T08:59:04.036Z,1002.9
2022-09-09T09:00:04.023Z,1002.8
2022-09-09T09:01:04.035Z,1002.8
2022-09-09T09:02:04.090Z,1002.8
2022-09-09T09:03:04.050Z,1002.8
2022-09-09T09:04:04.070Z,1002.8
2022-09-09T09:05:04.144Z,1002.9
2022-09-09T09:06:04.041Z,1003.0
2022-09-09T09:07:04.037Z,1003.0
2022-09-09T09:08:04.039Z,1002.8
2022-09-09T09:09:04.032Z,1002.8
2022-09-09T09:10:09.088Z,1002.9
2022-09-09T09:11:04.079Z,1002.8
2022-09-09T09:12:04.030Z,1003.0
2022-09-09T09:13:04.036Z,1002.8
2022-09-09T09:14:04.032Z,1002.8
2022-09-09T09:15:04.031Z,1002.8
2022-09-09T09:16:04.142Z,1002.8
2022-09-09T09:17:04.058Z,1002.8
2022-09-09T09:18:04.033Z,1003.0
2022-09-09T09:19:04.036Z,1003.0
2022-09-09T09:20:04.048Z,1002.9
2022-09-09T09:21:04.036Z,1003.0
2022-09-09T09:22:04.088Z,1002.9
2022-09-09T09:23:04.046Z,1002.8
2022-09-09T09:24:04.042Z,1002.8
2022-09-09T09:25:04.043Z,1002.9
2022-09-09T09:26:04.036Z,1003.0
2022-09-09T09:27:04.041Z,1003.0
2022-09-09T09:28:04.101Z,1003.0
2022-09-09T09:29:04.043Z,1003.0
2022-09-09T09:30:22.833Z,1002.9
2022-09-09T09:31:04.139Z,1002.8
2022-09-09T09:32:04.040Z,1002.8
2022-09-09T09:33:04.040Z,1002.8
2022-09-09T09:34:04.080Z,1002.8
2022-09-09T09:35:04.040Z,1002.8
2022-09-09T09:36:05.275Z,1002.7
2022-09-09T09:37:04.043Z,1002.8
2022-09-09T09:41:54.270Z,1002.7
2022-09-09T09:42:06.524Z,1002.7
2022-09-09T09:43:03.994Z,1002.7
2022-09-09T09:44:03.945Z,1002.7
2022-09-09T09:45:03.953Z,1002.6
2022-09-09T09:46:17.265Z,1002.6
2022-09-09T09:47:04.118Z,1002.7
2022-09-09T09:48:07.305Z,1002.7
2022-09-09T09:49:03.958Z,1002.6
2022-09-09T09:50:03.960Z,1002.7
2022-09-09T09:51:03.946Z,1002.6
2022-09-09T09:52:03.974Z,1002.7
2022-09-09T09:53:03.950Z,1002.7
2022-09-09T09:54:03.951Z,1002.6
2022-09-09T09:55:07.440Z,1002.7
2022-09-09T09:56:03.956Z,1002.7
2022-09-09T09:57:03.975Z,1002.6
2022-09-09T09:59:09.425Z,1002.7
2022-09-09T10:00:03.962Z,1002.6
2022-09-09T10:01:04.046Z,1002.7
2022-09-09T10:02:03.957Z,1002.7
2022-09-09T10:03:03.959Z,1002.7
2022-09-09T10:04:03.981Z,1002.7
2022-09-09T10:05:04.055Z,1002.7
2022-09-09T10:06:03.963Z,1002.8
2022-09-09T10:07:03.974Z,1002.8
2022-09-09T10:08:03.970Z,1002.8
2022-09-09T10:09:03.957Z,1002.8
2022-09-09T10:10:03.982Z,1002.7
2022-09-09T10:11:03.985Z,1002.7
2022-09-09T10:12:03.992Z,1002.8
2022-09-09T10:13:10.665Z,1002.8
2022-09-09T10:14:04.363Z,1002.8
2022-09-09T10:15:11.090Z,1002.7
2022-09-09T10:16:05.544Z,1002.7
2022-09-09T10:17:05.531Z,1002.7
2022-09-09T10:18:03.775Z,1002.7
2022-09-09T10:19:03.777Z,1002.7
2022-09-09T10:20:03.803Z,1002.7
2022-09-09T10:21:03.803Z,1002.7
2022-09-09T10:22:03.770Z,1002.7
2022-09-09T10:23:03.775Z,1002.7
2022-09-09T10:24:03.771Z,1002.7
2022-09-09T10:25:03.849Z,1002.6
2022-09-09T10:26:03.796Z,1002.7
2022-09-09T10:27:03.853Z,1002.7
2022-09-09T10:28:06.250Z,1002.6
2022-09-09T10:29:03.801Z,1002.5
2022-09-09T10:30:03.779Z,1002.5
2022-09-09T10:31:03.803Z,1002.5
2022-09-09T10:32:03.776Z,1002.6
2022-09-09T10:33:03.907Z,1002.6
2022-09-09T10:34:04.842Z,1002.5
2022-09-09T10:35:03.781Z,1002.5
2022-09-09T10:36:03.783Z,1002.5
2022-09-09T10:37:03.795Z,1002.4
2022-09-09T10:38:04.719Z,1002.4
2022-09-09T10:39:03.818Z,1002.4
2022-09-09T10:40:03.841Z,1002.4
2022-09-09T10:41:03.789Z,1002.4
2022-09-09T10:42:03.807Z,1002.4
2022-09-09T10:43:03.784Z,1002.4
2022-09-09T10:44:03.850Z,1002.4
2022-09-09T10:45:03.814Z,1002.4
2022-09-09T10:46:03.820Z,1002.4
2022-09-09T10:47:08.229Z,1002.4
2022-09-09T10:48:03.783Z,1002.5
2022-09-09T10:49:03.784Z,1002.4
2022-09-09T10:50:03.791Z,1002.5
2022-09-09T10:51:05.118Z,1002.4
2022-09-09T10:52:03.919Z,1002.5
2022-09-09T10:53:03.787Z,1002.4
2022-09-09T10:54:03.789Z,1002.4
2022-09-09T10:55:03.797Z,1002.3
2022-09-09T10:56:03.792Z,1002.3
2022-09-09T10:57:03.814Z,1002.3
2022-09-09T10:58:03.780Z,1002.3
2022-09-09T10:59:03.786Z,1002.3
2022-09-09T11:01:54.067Z,1002.2
2022-09-09T11:02:03.731Z,1002.3
2022-09-09T11:03:03.726Z,1002.3
2022-09-09T11:04:03.766Z,1002.3
2022-09-09T11:05:03.752Z,1002.3
2022-09-09T11:06:03.827Z,1002.3
2022-09-09T11:07:03.714Z,1002.3
2022-09-09T11:08:03.705Z,1002.3
2022-09-09T11:09:03.716Z,1002.3
2022-09-09T11:10:03.718Z,1002.3
2022-09-09T11:11:03.712Z,1002.3
2022-09-09T11:12:03.733Z,1002.3
2022-09-09T11:13:03.726Z,1002.2
2022-09-09T11:14:03.705Z,1002.2
2022-09-09T11:15:03.717Z,1002.1
2022-09-09T11:16:03.707Z,1002.2
2022-09-09T11:17:03.747Z,1002.2
2022-09-09T11:18:03.734Z,1002.3
2022-09-09T11:19:03.713Z,1002.3
2022-09-09T11:20:03.709Z,1002.3
2022-09-09T11:21:03.719Z,1002.2
2022-09-09T11:22:03.715Z,1002.2
2022-09-09T11:23:03.760Z,1002.2
2022-09-09T11:24:03.764Z,1002.1
2022-09-09T11:25:03.717Z,1002.1
2022-09-09T11:26:03.703Z,1002.2
2022-09-09T11:27:03.735Z,1002.2
2022-09-09T11:28:03.734Z,1002.2
2022-09-09T11:29:05.089Z,1002.2
2022-09-09T11:30:03.744Z,1002.2
2022-09-09T11:31:03.788Z,1002.2
2022-09-09T11:32:03.711Z,1002.2
2022-09-09T11:33:03.712Z,1002.2
2022-09-09T11:34:03.714Z,1002.2
2022-09-09T11:35:03.712Z,1002.2
2022-09-09T11:36:07.234Z,1002.2
2022-09-09T11:37:03.762Z,1002.2
2022-09-09T11:38:03.731Z,1002.2
2022-09-09T11:39:03.717Z,1002.2
2022-09-09T11:40:03.800Z,1002.2
2022-09-09T11:41:03.722Z,1002.2
2022-09-09T11:42:03.757Z,1002.2
2022-09-09T11:43:04.660Z,1002.2
2022-09-09T11:44:03.731Z,1002.2
2022-09-09T11:45:03.719Z,1002.2
2022-09-09T11:46:03.859Z,1002.2
2022-09-09T11:47:03.725Z,1002.2
2022-09-09T11:48:03.739Z,1002.2
2022-09-09T11:49:03.748Z,1002.2
2022-09-09T11:50:03.725Z,1002.2
2022-09-09T11:51:03.718Z,1002.2
2022-09-09T11:52:03.765Z,1002.2
2022-09-09T11:53:03.727Z,1002.3
2022-09-09T11:54:03.759Z,1002.3
2022-09-09T11:55:03.731Z,1002.3
2022-09-09T11:56:03.739Z,1002.4
2022-09-09T11:57:03.725Z,1002.4
2022-09-09T11:58:03.723Z,1002.4
2022-09-09T11:59:03.733Z,1002.4
2022-09-09T12:00:03.745Z,1002.4
2022-09-09T12:01:03.725Z,1002.4
2022-09-09T12:02:03.767Z,1002.5
2022-09-09T12:03:03.728Z,1002.4
2022-09-09T12:04:03.759Z,1002.4
2022-09-09T12:05:03.828Z,1002.4
2022-09-09T12:06:03.755Z,1002.4
2022-09-09T12:07:03.768Z,1002.5
2022-09-09T12:08:03.733Z,1002.4
2022-09-09T12:09:03.732Z,1002.4
2022-09-09T12:10:03.759Z,1002.5
2022-09-09T12:11:03.724Z,1002.4
2022-09-09T12:12:03.725Z,1002.4
2022-09-09T12:13:03.727Z,1002.4
2022-09-09T12:14:03.723Z,1002.4
2022-09-09T12:15:03.729Z,1002.5
2022-09-09T12:16:03.747Z,1002.5
2022-09-09T12:17:03.732Z,1002.5
2022-09-09T12:18:04.094Z,1002.5
2022-09-09T12:19:03.737Z,1002.5
2022-09-09T12:20:03.729Z,1002.5
2022-09-09T12:21:03.735Z,1002.5
2022-09-09T12:22:03.756Z,1002.6
2022-09-09T12:23:03.737Z,1002.6
2022-09-09T12:24:03.723Z,1002.6
2022-09-09T12:25:03.778Z,1002.6
2022-09-09T12:26:03.719Z,1002.6
2022-09-09T12:27:03.730Z,1002.7
2022-09-09T12:28:03.787Z,1002.7
2022-09-09T12:29:03.738Z,1002.7
2022-09-09T12:30:03.744Z,1002.7
2022-09-09T12:31:03.843Z,1002.7
2022-09-09T12:32:03.732Z,1002.7
2022-09-09T12:33:03.734Z,1002.7
2022-09-09T12:34:03.795Z,1002.7
2022-09-09T12:35:03.746Z,1002.7
2022-09-09T12:36:03.741Z,1002.6